createdAt,value
2022-10-28T00:01:42.757Z,10.10
2022-10-28T00:04:10.281Z,9.90
2022-10-28T00:06:37.836Z,9.90
2022-10-28T00:09:08.248Z,9.90
2022-10-28T00:11:39.097Z,10.10
2022-10-28T00:14:07.943Z,10.10
2022-10-28T00:16:37.756Z,9.80
2022-10-28T00:19:10.167Z,9.50
2022-10-28T00:21:39.444Z,9.20
2022-10-28T00:24:08.857Z,9.20
2022-10-28T00:26:37.944Z,9.10
2022-10-28T00:29:07.771Z,9.10
2022-10-28T00:31:36.939Z,9.00
2022-10-28T00:34:06.964Z,9.10
2022-10-28T00:36:37.404Z,9.10
2022-10-28T00:39:14.742Z,9.10
2022-10-28T00:41:45.924Z,9.00
2022-10-28T00:44:38.508Z,9.00
2022-10-28T00:47:52.684Z,9.00
2022-10-28T00:50:32.804Z,9.00
2022-10-28T00:53:09.149Z,9.10
2022-10-28T00:55:37.704Z,9.20
2022-10-28T00:58:08.252Z,9.20
2022-10-28T01:00:35.724Z,9.10
2022-10-28T01:03:03.641Z,9.00
2022-10-28T01:05:34.882Z,9.00
2022-10-28T01:08:04.653Z,9.10
2022-10-28T01:15:20.437Z,9.00
2022-10-28T01:17:58.693Z,8.70
2022-10-28T01:20:53.992Z,8.60
2022-10-28T01:23:37.187Z,8.70
2022-10-28T01:26:26.990Z,8.90
2022-10-28T01:29:17.821Z,8.90
2022-10-28T01:32:03.821Z,8.70
2022-10-28T01:34:36.897Z,8.60
2022-10-28T01:37:32.015Z,8.50
2022-10-28T01:40:21.013Z,8.50
2022-10-28T01:42:57.365Z,8.50
2022-10-28T01:45:59.319Z,8.50
2022-10-28T01:48:56.532Z,8.50
2022-10-28T01:51:56.814Z,8.60
2022-10-28T02:38:11.531Z,9.60
2022-10-28T02:40:40.199Z,9.60
2022-10-28T02:43:10.558Z,9.70
2022-10-28T02:45:44.039Z,9.60
2022-10-28T02:48:28.547Z,9.60
2022-10-28T02:51:06.523Z,9.60
2022-10-28T02:53:52.536Z,9.70
2022-10-28T02:58:03.580Z,9.70
2022-10-28T03:00:31.375Z,9.70
2022-10-28T03:02:59.083Z,9.70
2022-10-28T03:05:26.688Z,9.70
2022-10-28T03:07:54.829Z,9.60
2022-10-28T03:10:22.567Z,9.50
2022-10-28T03:12:52.860Z,9.30
2022-10-28T03:15:20.584Z,9.30
2022-10-28T03:17:48.144Z,9.30
2022-10-28T03:20:18.208Z,9.20
2022-10-28T03:22:46.648Z,9.20
2022-10-28T03:25:14.368Z,9.10
2022-10-28T03:27:42.057Z,9.20
2022-10-28T03:30:10.172Z,9.30
2022-10-28T03:32:37.754Z,9.30
2022-10-28T03:35:06.648Z,9.20
2022-10-28T03:37:34.265Z,9.20
2022-10-28T03:40:03.020Z,9.20
2022-10-28T03:42:30.750Z,9.40
2022-10-28T03:44:58.349Z,9.50
2022-10-28T03:47:26.037Z,9.50
2022-10-28T03:49:53.765Z,9.50
2022-10-28T03:52:21.577Z,9.50
2022-10-28T03:54:49.221Z,9.50
2022-10-28T03:57:17.005Z,9.50
2022-10-28T03:59:44.526Z,9.60
2022-10-28T04:05:50.623Z,9.50
2022-10-28T04:08:21.354Z,9.60
2022-10-28T04:10:48.941Z,9.60
2022-10-28T04:13:17.321Z,9.60
2022-10-28T04:15:44.854Z,9.70
2022-10-28T04:18:12.374Z,9.60
2022-10-28T04:20:40.341Z,9.60
2022-10-28T04:23:08.689Z,9.60
2022-10-28T04:25:40.394Z,9.50
2022-10-28T04:28:08.274Z,9.30
2022-10-28T04:30:35.751Z,9.20
2022-10-28T04:33:03.335Z,9.20
2022-10-28T04:35:30.786Z,9.10
2022-10-28T04:37:58.294Z,9.20
2022-10-28T04:40:25.894Z,9.40
2022-10-28T04:42:53.662Z,9.50
2022-10-28T04:45:21.382Z,9.60
2022-10-28T04:47:48.890Z,9.60
2022-10-28T04:50:22.202Z,9.60
2022-10-28T04:52:59.019Z,9.60
2022-10-28T05:00:37.235Z,9.60
2022-10-28T05:27:29.831Z,9.50
2022-10-28T05:44:23.602Z,9.40
2022-10-28T08:33:56.719Z,14.40
2022-10-28T08:36:25.028Z,14.80
2022-10-28T08:49:42.476Z,15.20
2022-10-28T08:53:25.908Z,15.40
2022-10-28T08:57:45.434Z,15.60
2022-10-28T10:27:29.433Z,18.60
2022-10-28T11:48:26.484Z,20.00
2022-10-28T11:51:22.989Z,19.90
2022-10-28T11:54:17.342Z,19.90
2022-10-28T11:57:34.617Z,20.20
2022-10-28T12:00:23.478Z,20.50
2022-10-28T12:03:40.026Z,20.60
2022-10-28T12:06:54.755Z,20.50
2022-10-28T12:10:04.408Z,20.30
2022-10-28T12:12:59.078Z,20.50
2022-10-28T12:16:18.273Z,20.50
2022-10-28T12:19:25.041Z,20.50
2022-10-28T12:22:20.115Z,20.70
2022-10-28T12:25:04.164Z,20.70
2022-10-28T12:27:46.861Z,20.70
2022-10-28T12:30:27.450Z,20.70
2022-10-28T12:33:05.185Z,20.80
2022-10-28T12:36:06.384Z,20.60
2022-10-28T12:42:48.294Z,20.50
2022-10-28T12:45:49.074Z,20.50
2022-10-28T12:48:57.104Z,20.50
2022-10-28T12:52:25.337Z,20.60
2022-10-28T12:55:12.910Z,20.80
2022-10-28T12:58:08.822Z,20.70
2022-10-28T13:00:42.007Z,20.80
2022-10-28T13:03:14.263Z,20.70
2022-10-28T13:05:50.114Z,20.80
2022-10-28T13:08:36.135Z,21.00
2022-10-28T13:11:35.011Z,21.10
2022-10-28T13:14:39.283Z,21.00
2022-10-28T13:17:21.263Z,21.10
2022-10-28T13:19:58.990Z,21.20
2022-10-28T13:22:52.291Z,21.20
2022-10-28T13:25:41.297Z,21.10
2022-10-28T13:28:21.622Z,20.90
2022-10-28T13:30:57.227Z,20.80
2022-10-28T13:33:27.637Z,20.70
2022-10-28T13:36:07.980Z,20.60
2022-10-28T13:38:36.110Z,20.50
2022-10-28T13:41:11.074Z,20.40
2022-10-28T13:44:11.359Z,20.40
2022-10-28T13:46:58.727Z,20.50
2022-10-28T13:49:30.524Z,20.70
2022-10-28T13:52:06.695Z,20.80
2022-10-28T13:54:42.786Z,21.00
2022-10-28T13:57:27.748Z,21.30
2022-10-28T14:00:00.838Z,21.40
2022-10-28T14:02:40.316Z,21.60
2022-10-28T14:05:10.885Z,21.50
2022-10-28T14:07:51.715Z,21.40
2022-10-28T14:10:28.198Z,21.30
2022-10-28T14:13:18.251Z,21.30
2022-10-28T14:15:48.045Z,21.30
2022-10-28T14:18:41.502Z,21.20
2022-10-28T14:21:06.030Z,21.10
2022-10-28T14:23:33.394Z,20.80
2022-10-28T14:26:04.468Z,20.70
2022-10-28T14:28:35.949Z,20.50
2022-10-28T14:31:12.788Z,20.40
2022-10-28T14:33:42.968Z,20.20
2022-10-28T14:36:19.326Z,20.10
2022-10-28T14:39:24.599Z,19.90
2022-10-28T14:42:30.779Z,19.90
2022-10-28T14:45:31.813Z,19.70
2022-10-28T14:48:17.926Z,19.60
2022-10-28T14:50:51.345Z,19.60
2022-10-28T14:53:33.408Z,19.50
2022-10-28T14:56:09.454Z,19.50
2022-10-28T14:58:42.259Z,19.40
2022-10-28T15:01:18.776Z,19.40
2022-10-28T15:03:53.317Z,19.40
2022-10-28T15:06:26.759Z,19.30
2022-10-28T15:08:55.137Z,19.20
2022-10-28T15:11:25.970Z,19.10
2022-10-28T15:13:53.493Z,18.90
2022-10-28T15:16:22.801Z,18.60
2022-10-28T15:18:52.829Z,18.60
2022-10-28T15:21:21.885Z,18.50
2022-10-28T15:24:02.400Z,18.40
2022-10-28T15:26:29.867Z,18.40
2022-10-28T15:28:57.268Z,18.30
2022-10-28T15:31:24.645Z,18.20
2022-10-28T15:34:20.134Z,18.20
2022-10-28T15:36:49.737Z,18.00
2022-10-28T15:39:24.661Z,17.90
2022-10-28T15:41:57.503Z,17.60
2022-10-28T15:44:34.476Z,17.20
2022-10-28T15:47:16.518Z,17.20
2022-10-28T15:49:45.307Z,17.00
2022-10-28T15:52:53.555Z,16.90
2022-10-28T16:06:38.766Z,16.10
2022-10-28T16:09:15.238Z,15.70
2022-10-28T16:11:49.157Z,15.80
2022-10-28T16:14:41.839Z,15.70
2022-10-28T16:49:54.336Z,15.00
2022-10-28T16:52:29.968Z,15.10
2022-10-28T16:54:58.787Z,15.10
2022-10-28T16:57:27.717Z,15.10
2022-10-28T16:59:55.272Z,15.10
2022-10-28T17:02:31.840Z,14.70
2022-10-28T17:05:00.838Z,14.40
2022-10-28T17:07:29.159Z,14.30
2022-10-28T17:09:56.959Z,14.30
2022-10-28T17:12:27.010Z,14.30
2022-10-28T17:14:54.631Z,14.40
2022-10-28T17:17:22.032Z,14.40
2022-10-28T17:19:49.508Z,14.50
2022-10-28T17:22:17.253Z,14.40
2022-10-28T17:24:44.771Z,14.50
2022-10-28T17:27:12.855Z,14.40
2022-10-28T17:29:40.406Z,14.40
2022-10-28T17:32:10.748Z,14.30
2022-10-28T17:34:38.212Z,14.20
2022-10-28T17:37:05.893Z,14.20
2022-10-28T17:39:33.613Z,14.20
2022-10-28T17:42:01.155Z,14.30
2022-10-28T17:44:28.714Z,14.30
2022-10-28T17:46:59.192Z,14.40
2022-10-28T17:49:30.025Z,14.30
2022-10-28T17:51:58.322Z,14.30
2022-10-28T17:54:25.706Z,14.40
2022-10-28T17:56:56.431Z,14.00
2022-10-28T17:59:26.177Z,13.70
2022-10-28T18:01:57.033Z,13.50
2022-10-28T18:04:26.393Z,13.40
2022-10-28T18:06:57.122Z,13.50
2022-10-28T18:09:24.996Z,13.80
2022-10-28T18:11:52.361Z,14.10
2022-10-28T18:14:20.641Z,14.40
2022-10-28T18:16:50.164Z,14.70
2022-10-28T18:19:17.865Z,14.70
2022-10-28T18:21:47.917Z,14.70
2022-10-28T18:24:18.538Z,14.70
2022-10-28T18:26:50.092Z,14.70
2022-10-28T18:29:17.794Z,14.60
2022-10-28T18:31:49.410Z,14.60
2022-10-28T18:34:23.789Z,14.60
2022-10-28T18:36:51.846Z,14.60
2022-10-28T18:39:26.566Z,14.60
2022-10-28T18:41:54.411Z,14.50
2022-10-28T18:44:26.927Z,14.30
2022-10-28T18:46:57.267Z,14.20
2022-10-28T18:50:03.348Z,14.20
2022-10-28T18:52:56.475Z,14.10
2022-10-28T18:56:49.833Z,14.00
2022-10-28T19:00:05.134Z,13.80
2022-10-28T19:02:32.541Z,13.90
2022-10-28T19:05:00.154Z,14.00
2022-10-28T19:07:32.808Z,13.80
2022-10-28T19:10:09.631Z,13.60
2022-10-28T19:12:53.043Z,13.50
2022-10-28T19:15:20.931Z,13.50
2022-10-28T19:18:32.037Z,13.40
2022-10-28T19:21:20.498Z,13.20
2022-10-28T19:24:23.037Z,13.20
2022-10-28T19:37:42.208Z,12.90
2022-10-28T19:40:10.560Z,12.80
2022-10-28T19:42:38.989Z,12.80
2022-10-28T19:45:07.430Z,12.90
2022-10-28T19:47:34.952Z,13.10
2022-10-28T19:50:04.721Z,13.20
2022-10-28T19:52:32.162Z,13.20
2022-10-28T19:54:59.889Z,13.30
2022-10-28T19:57:28.369Z,13.40
2022-10-28T19:59:58.601Z,13.40
2022-10-28T20:02:28.665Z,13.40
2022-10-28T20:04:57.340Z,13.40
2022-10-28T20:07:25.913Z,13.30
2022-10-28T20:12:29.993Z,13.00
2022-10-28T20:14:57.614Z,12.60
2022-10-28T20:17:25.254Z,12.50
2022-10-28T20:19:54.796Z,12.50
2022-10-28T20:22:22.423Z,12.50
2022-10-28T20:24:50.573Z,12.40
2022-10-28T20:27:20.282Z,12.30
2022-10-28T20:29:50.430Z,12.40
2022-10-28T20:32:28.443Z,12.40
2022-10-28T20:35:02.206Z,12.50
2022-10-28T20:37:32.815Z,12.60
2022-10-28T20:40:07.250Z,12.60
2022-10-28T20:42:35.348Z,12.70
2022-10-28T20:45:03.676Z,12.70
2022-10-28T20:47:33.438Z,12.80
2022-10-28T20:50:01.190Z,12.90
2022-10-28T20:52:28.743Z,13.00
2022-10-28T20:54:56.398Z,12.80
2022-10-28T20:57:24.225Z,12.60
2022-10-28T20:59:53.795Z,12.60
2022-10-28T21:02:21.498Z,12.70
2022-10-28T21:04:49.118Z,12.90
2022-10-28T21:07:16.664Z,13.00
2022-10-28T21:09:44.118Z,13.00
2022-10-28T21:12:11.586Z,13.20
2022-10-28T21:14:39.112Z,13.30
2022-10-28T21:17:08.107Z,13.00
2022-10-28T21:19:35.900Z,12.90
2022-10-28T21:22:03.499Z,12.90
2022-10-28T21:24:34.118Z,12.90
2022-10-28T21:27:01.847Z,13.20
2022-10-28T21:30:05.976Z,13.30
2022-10-28T21:33:18.764Z,13.40
2022-10-28T21:43:06.397Z,13.30
2022-10-28T21:49:49.591Z,13.50
2022-10-28T21:52:40.774Z,13.40
2022-10-28T21:55:46.233Z,13.40
2022-10-28T21:59:19.801Z,13.40
2022-10-28T22:02:05.649Z,13.50
2022-10-28T22:05:10.528Z,13.40
2022-10-28T22:08:10.338Z,13.20
2022-10-28T22:12:04.747Z,13.00
2022-10-28T22:15:39.751Z,12.90
2022-10-28T22:22:00.468Z,12.90
2022-10-28T22:35:31.781Z,12.90
2022-10-28T22:38:25.074Z,12.70
2022-10-28T22:42:09.209Z,12.60
2022-10-28T22:44:58.884Z,12.60
2022-10-28T22:48:35.842Z,12.70
2022-10-28T22:55:15.428Z,12.80
2022-10-28T22:58:26.142Z,12.90
2022-10-28T23:04:38.208Z,12.80
2022-10-28T23:07:14.527Z,12.70
2022-10-28T23:10:14.517Z,12.60
2022-10-28T23:13:13.437Z,12.60
2022-10-28T23:16:17.399Z,12.60
2022-10-28T23:22:12.044Z,12.90
2022-10-28T23:24:56.248Z,12.90
2022-10-28T23:28:23.135Z,12.70
2022-10-28T23:31:13.894Z,12.50
2022-10-28T23:34:24.054Z,12.40
2022-10-28T23:37:05.579Z,12.40
2022-10-28T23:52:05.909Z,12.40
